Ozona, TX

1:47 AM CDT on July 21, 2017 (GMT -0500)
Ozona Municipal

Weather History for KOZA - November, 2014

Change the Weather History Date:

Sunday, November 2, 2014

  Actual Average Record
Temperature  
Mean Temperature 60 °F -  
Max Temperature 68 °F 71 °F 84 °F (2011)
Min Temperature 53 °F 42 °F 37 °F (2013)
Degree Days  
Heating Degree Days 4    
Growing Degree Days 10 (Base 50)    
Moisture  
Dew Point 49 °F    
Average Humidity 69    
Maximum Humidity 88    
Minimum Humidity 56    
Precipitation  
Precipitation 0.00 in - - ()
Sea Level Pressure  
Sea Level Pressure 30.18 in    
Wind  
Wind Speed 17 mph (South)    
Max Wind Speed 28 mph    
Max Gust Speed 34 mph    
Visibility 10 miles    
Events      
Averages and records for this station are not official NWS values.
T = Trace of Precipitation, MM = Missing Value Source: NWS Daily Summary

Daily Weather History Graph

Daily Weather History Graph

Search for Another Location

Airport or City:

Trip Planner

Search our weather history database for the weather conditions in past years. The results will help you decide how hot, cold, wet, or windy it might be!

Date:

Astronomy

Nov. 02, 2014 Rise Set
Actual Time 7:00 AM CST 5:55 PM CST
Civil Twilight 6:35 AM CST 6:20 PM CST
Nautical Twilight 6:06 AM CST 6:49 PM CST
Astronomical Twilight 5:38 AM CST 7:17 PM CST
Moon 3:11 PM CST (11/2) 2:25 AM CST (11/2)
Length of Visible Light 11h 45m
Length of Day
10h 55m
Waxing Gibbous, 79% of the Moon is Illuminated
Nov 2
Waxing Gibbous
Nov 6
Full
Nov 14
Last Quarter
Nov 22
New
Nov 29
First Quarter

Hourly Weather History & Observations

Time (CST) Temp. Dew Point Humidity Pressure Visibility Wind Dir Wind Speed Gust Speed Precip Events Conditions
12:15 AM 55.4 °F 41.0 °F 58% 30.23 in 10.0 mi South 13.8 mph 19.6 mph N/A   Clear
12:35 AM 55.4 °F 41.0 °F 58% 30.22 in 10.0 mi South 13.8 mph 19.6 mph N/A   Clear
12:55 AM 55.4 °F 41.0 °F 58% 30.22 in 10.0 mi South 11.5 mph 19.6 mph N/A   Clear
1:15 AM 55.4 °F 41.0 °F 58% 30.22 in 10.0 mi South 10.4 mph - N/A   Clear
1:35 AM 55.4 °F 41.0 °F 58% 30.21 in 10.0 mi South 11.5 mph - N/A   Clear
1:55 AM 55.4 °F 42.8 °F 63% 30.20 in 10.0 mi South 11.5 mph 19.6 mph N/A   Clear
1:15 AM 55.4 °F 42.8 °F 63% 30.19 in 10.0 mi South 17.3 mph 20.7 mph N/A   Clear
1:35 AM 55.4 °F 42.8 °F 63% 30.19 in 10.0 mi South 15.0 mph 20.7 mph N/A   Clear
1:55 AM 55.4 °F 44.6 °F 67% 30.19 in 10.0 mi South 17.3 mph 21.9 mph N/A   Clear
2:15 AM 55.4 °F 46.4 °F 72% 30.19 in 10.0 mi South 17.3 mph 26.5 mph N/A   Clear
2:35 AM 55.4 °F 46.4 °F 72% 30.19 in 10.0 mi South 17.3 mph 21.9 mph N/A   Clear
2:55 AM 55.4 °F 46.4 °F 72% 30.20 in 10.0 mi South 20.7 mph 26.5 mph N/A   Clear
3:15 AM 55.4 °F 46.4 °F 72% 30.20 in 10.0 mi South 16.1 mph 25.3 mph N/A   Clear
3:35 AM 53.6 °F 46.4 °F 77% 30.20 in 10.0 mi South 11.5 mph 20.7 mph N/A   Clear
3:55 AM 53.6 °F 46.4 °F 77% 30.20 in 10.0 mi South 15.0 mph 23.0 mph N/A   Clear
4:15 AM 53.6 °F 46.4 °F 77% 30.21 in 10.0 mi South 12.7 mph 19.6 mph N/A   Clear
4:35 AM 53.6 °F 46.4 °F 77% 30.20 in 10.0 mi South 12.7 mph 18.4 mph N/A   Clear
4:55 AM 53.6 °F 46.4 °F 77% 30.20 in 10.0 mi South 11.5 mph - N/A   Clear
5:15 AM 53.6 °F 46.4 °F 77% 30.20 in 10.0 mi South 13.8 mph - N/A   Clear
5:55 AM 53.6 °F 46.4 °F 77% 30.20 in 10.0 mi South 18.4 mph 27.6 mph N/A   Clear
6:15 AM 53.6 °F 46.4 °F 77% 30.20 in 10.0 mi South 18.4 mph 21.9 mph N/A   Clear
6:35 AM 53.6 °F 48.2 °F 82% 30.20 in 10.0 mi South 19.6 mph 26.5 mph N/A   Clear
6:55 AM 53.6 °F 48.2 °F 82% 30.20 in 10.0 mi South 20.7 mph 26.5 mph N/A   Clear
7:15 AM 53.6 °F 50.0 °F 88% 30.20 in 10.0 mi SSE 20.7 mph 27.6 mph N/A   Scattered Clouds
7:35 AM 53.6 °F 50.0 °F 88% 30.21 in 10.0 mi South 18.4 mph 26.5 mph N/A   Scattered Clouds
7:55 AM 55.4 °F 50.0 °F 82% 30.22 in 10.0 mi South 17.3 mph 28.8 mph N/A   Scattered Clouds
8:15 AM 55.4 °F 50.0 °F 82% 30.23 in 10.0 mi South 20.7 mph 28.8 mph N/A   Mostly Cloudy
8:35 AM 57.2 °F 50.0 °F 77% 30.24 in 10.0 mi South 20.7 mph 26.5 mph N/A   Overcast
8:55 AM 57.2 °F 50.0 °F 77% 30.24 in 10.0 mi South 23.0 mph 31.1 mph N/A   Overcast
9:15 AM 59.0 °F 51.8 °F 77% 30.25 in 10.0 mi South 23.0 mph 33.4 mph N/A   Overcast
9:35 AM 59.0 °F 51.8 °F 77% 30.24 in 10.0 mi South 25.3 mph 33.4 mph N/A   Overcast
9:55 AM 59.0 °F 51.8 °F 77% 30.25 in 10.0 mi South 20.7 mph 26.5 mph N/A   Overcast
10:15 AM 59.0 °F 51.8 °F 77% 30.25 in 10.0 mi South 27.6 mph 34.5 mph N/A   Overcast
10:35 AM 60.8 °F 51.8 °F 72% 30.25 in 10.0 mi South 24.2 mph 33.4 mph N/A   Overcast
10:55 AM 60.8 °F 51.8 °F 72% 30.23 in 10.0 mi South 23.0 mph 29.9 mph N/A   Overcast
11:15 AM 60.8 °F 51.8 °F 72% 30.23 in 10.0 mi South 25.3 mph 31.1 mph N/A   Overcast
11:55 AM 62.6 °F 51.8 °F 68% 30.21 in 10.0 mi South 19.6 mph 28.8 mph N/A   Overcast
12:15 PM 62.6 °F 51.8 °F 68% 30.19 in 10.0 mi South 26.5 mph 31.1 mph N/A   Overcast
12:35 PM 64.4 °F 51.8 °F 64% 30.19 in 10.0 mi South 19.6 mph 27.6 mph N/A   Overcast
12:55 PM 64.4 °F 51.8 °F 64% 30.17 in 10.0 mi South 21.9 mph 28.8 mph N/A   Overcast
1:15 PM 64.4 °F 51.8 °F 64% 30.16 in 10.0 mi South 20.7 mph 27.6 mph N/A   Overcast
1:35 PM 64.4 °F 51.8 °F 64% 30.15 in 10.0 mi South 23.0 mph 32.2 mph N/A   Overcast
1:55 PM 64.4 °F 51.8 °F 64% 30.14 in 10.0 mi South 25.3 mph 33.4 mph N/A   Overcast
2:15 PM 66.2 °F 51.8 °F 60% 30.13 in 10.0 mi South 25.3 mph 32.2 mph N/A   Mostly Cloudy
2:35 PM 66.2 °F 51.8 °F 60% 30.13 in 10.0 mi South 23.0 mph 28.8 mph N/A   Mostly Cloudy
2:55 PM 64.4 °F 51.8 °F 64% 30.12 in 10.0 mi South 21.9 mph 34.5 mph N/A   Mostly Cloudy
3:15 PM 66.2 °F 51.8 °F 60% 30.12 in 10.0 mi South 26.5 mph 33.4 mph N/A   Mostly Cloudy
3:35 PM 66.2 °F 51.8 °F 60% 30.12 in 10.0 mi South 21.9 mph 28.8 mph N/A   Mostly Cloudy
3:55 PM 68.0 °F 51.8 °F 56% 30.12 in 10.0 mi South 16.1 mph 31.1 mph N/A   Overcast
4:15 PM 68.0 °F 51.8 °F 56% 30.12 in 10.0 mi South 21.9 mph 31.1 mph N/A   Overcast
4:35 PM 66.2 °F 51.8 °F 60% 30.12 in 10.0 mi SSE 21.9 mph 28.8 mph N/A   Overcast
4:55 PM 66.2 °F 51.8 °F 60% 30.11 in 10.0 mi South 21.9 mph 34.5 mph N/A   Overcast
5:15 PM 66.2 °F 51.8 °F 60% 30.11 in 10.0 mi South 20.7 mph 31.1 mph N/A   Mostly Cloudy
5:35 PM 64.4 °F 51.8 °F 64% 30.10 in 10.0 mi South 26.5 mph 33.4 mph N/A   Mostly Cloudy
5:55 PM 64.4 °F 51.8 °F 64% 30.10 in 10.0 mi South 17.3 mph 31.1 mph N/A   Mostly Cloudy
6:15 PM 64.4 °F 51.8 °F 64% 30.10 in 10.0 mi South 16.1 mph 25.3 mph N/A   Mostly Cloudy
6:35 PM 64.4 °F 51.8 °F 64% 30.11 in 10.0 mi SSE 18.4 mph 21.9 mph N/A   Overcast
6:55 PM 64.4 °F 51.8 °F 64% 30.12 in 10.0 mi South 16.1 mph 19.6 mph N/A   Mostly Cloudy
7:15 PM 64.4 °F 51.8 °F 64% 30.11 in 10.0 mi South 16.1 mph 25.3 mph N/A   Mostly Cloudy
7:35 PM 64.4 °F 51.8 °F 64% 30.11 in 10.0 mi South 20.7 mph 27.6 mph N/A   Scattered Clouds
7:55 PM 64.4 °F 51.8 °F 64% 30.12 in 10.0 mi South 18.4 mph 26.5 mph N/A   Mostly Cloudy
8:15 PM 64.4 °F 51.8 °F 64% 30.13 in 10.0 mi South 16.1 mph 20.7 mph N/A   Overcast
8:35 PM 64.4 °F 51.8 °F 64% 30.13 in 10.0 mi South 15.0 mph 24.2 mph N/A   Overcast
8:55 PM 64.4 °F 51.8 °F 64% 30.14 in 10.0 mi South 15.0 mph 21.9 mph N/A   Overcast
9:10 PM 62.6 °F 53.6 °F 72% 30.15 in 10.0 mi South 16.1 mph 20.7 mph N/A   Overcast
9:35 PM 62.6 °F 53.6 °F 72% 30.15 in 10.0 mi South 15.0 mph 23.0 mph N/A   Overcast
9:55 PM 62.6 °F 53.6 °F 72% 30.15 in 10.0 mi South 18.4 mph 25.3 mph N/A   Overcast
10:15 PM 62.6 °F 53.6 °F 72% 30.15 in 10.0 mi South 15.0 mph 21.9 mph N/A   Overcast
10:35 PM 62.6 °F 53.6 °F 72% 30.14 in 10.0 mi South 17.3 mph 26.5 mph N/A   Overcast
10:55 PM 62.6 °F 53.6 °F 72% 30.13 in 10.0 mi South 18.4 mph 32.2 mph N/A   Mostly Cloudy